sensor_id;sensor_type;location;lat;lon;timestamp;P1;durP1;ratioP1;P2;durP2;ratioP2
14139;SDS011;7150;53.514;9.988;2024-03-08T00:00:13;13.43;;;6.90;;
14139;SDS011;7150;53.514;9.988;2024-03-08T00:02:45;11.67;;;7.70;;
14139;SDS011;7150;53.514;9.988;2024-03-08T00:05:11;12.10;;;7.67;;
14139;SDS011;7150;53.514;9.988;2024-03-08T00:07:38;13.53;;;8.47;;
14139;SDS011;7150;53.514;9.988;2024-03-08T00:10:04;11.50;;;7.70;;
14139;SDS011;7150;53.514;9.988;2024-03-08T00:12:31;15.17;;;8.53;;
14139;SDS011;7150;53.514;9.988;2024-03-08T00:14:56;11.83;;;7.57;;
14139;SDS011;7150;53.514;9.988;2024-03-08T00:17:22;12.57;;;7.80;;
14139;SDS011;7150;53.514;9.988;2024-03-08T00:19:51;12.50;;;8.70;;
14139;SDS011;7150;53.514;9.988;2024-03-08T00:22:16;16.00;;;8.70;;
14139;SDS011;7150;53.514;9.988;2024-03-08T00:24:42;14.07;;;8.53;;
14139;SDS011;7150;53.514;9.988;2024-03-08T00:27:08;13.53;;;7.90;;
14139;SDS011;7150;53.514;9.988;2024-03-08T00:29:34;14.17;;;8.07;;
14139;SDS011;7150;53.514;9.988;2024-03-08T00:32:00;13.40;;;8.47;;
14139;SDS011;7150;53.514;9.988;2024-03-08T00:34:26;14.83;;;8.53;;
14139;SDS011;7150;53.514;9.988;2024-03-08T00:36:51;13.27;;;8.00;;
14139;SDS011;7150;53.514;9.988;2024-03-08T00:39:17;13.03;;;9.00;;
14139;SDS011;7150;53.514;9.988;2024-03-08T00:41:45;14.77;;;9.17;;
14139;SDS011;7150;53.514;9.988;2024-03-08T00:44:10;15.23;;;8.57;;
14139;SDS011;7150;53.514;9.988;2024-03-08T00:46:36;14.70;;;8.30;;
14139;SDS011;7150;53.514;9.988;2024-03-08T00:49:01;15.40;;;7.87;;
14139;SDS011;7150;53.514;9.988;2024-03-08T00:51:27;13.67;;;7.97;;
14139;SDS011;7150;53.514;9.988;2024-03-08T00:53:53;12.23;;;7.57;;
14139;SDS011;7150;53.514;9.988;2024-03-08T00:56:18;12.80;;;8.20;;
14139;SDS011;7150;53.514;9.988;2024-03-08T00:58:44;13.17;;;8.13;;
14139;SDS011;7150;53.514;9.988;2024-03-08T01:01:09;12.77;;;7.63;;
14139;SDS011;7150;53.514;9.988;2024-03-08T01:03:35;13.70;;;7.87;;
14139;SDS011;7150;53.514;9.988;2024-03-08T01:06:01;13.17;;;7.87;;
14139;SDS011;7150;53.514;9.988;2024-03-08T01:08:27;13.70;;;8.33;;
14139;SDS011;7150;53.514;9.988;2024-03-08T01:10:53;13.20;;;7.73;;
14139;SDS011;7150;53.514;9.988;2024-03-08T01:13:18;11.73;;;7.50;;
14139;SDS011;7150;53.514;9.988;2024-03-08T01:15:44;12.40;;;7.70;;
14139;SDS011;7150;53.514;9.988;2024-03-08T01:18:10;12.70;;;8.27;;
14139;SDS011;7150;53.514;9.988;2024-03-08T01:20:36;12.17;;;7.37;;
14139;SDS011;7150;53.514;9.988;2024-03-08T01:23:02;12.53;;;7.53;;
14139;SDS011;7150;53.514;9.988;2024-03-08T01:25:29;12.40;;;7.23;;
14139;SDS011;7150;53.514;9.988;2024-03-08T01:27:54;13.17;;;8.17;;
14139;SDS011;7150;53.514;9.988;2024-03-08T01:30:20;14.93;;;8.13;;
14139;SDS011;7150;53.514;9.988;2024-03-08T01:32:45;13.70;;;9.03;;
14139;SDS011;7150;53.514;9.988;2024-03-08T01:35:11;14.93;;;8.17;;
14139;SDS011;7150;53.514;9.988;2024-03-08T01:37:37;14.37;;;8.67;;
14139;SDS011;7150;53.514;9.988;2024-03-08T01:40:03;15.43;;;8.70;;
14139;SDS011;7150;53.514;9.988;2024-03-08T01:42:29;16.50;;;8.87;;
14139;SDS011;7150;53.514;9.988;2024-03-08T01:44:55;14.07;;;8.57;;
14139;SDS011;7150;53.514;9.988;2024-03-08T01:47:22;13.90;;;8.77;;
14139;SDS011;7150;53.514;9.988;2024-03-08T01:49:50;14.40;;;8.20;;
14139;SDS011;7150;53.514;9.988;2024-03-08T01:52:17;13.77;;;8.53;;
14139;SDS011;7150;53.514;9.988;2024-03-08T01:54:45;12.90;;;7.37;;
14139;SDS011;7150;53.514;9.988;2024-03-08T01:57:11;14.53;;;8.33;;
14139;SDS011;7150;53.514;9.988;2024-03-08T01:59:38;13.30;;;8.20;;
14139;SDS011;7150;53.514;9.988;2024-03-08T02:02:05;15.73;;;8.73;;
14139;SDS011;7150;53.514;9.988;2024-03-08T02:04:33;12.30;;;7.70;;
14139;SDS011;7150;53.514;9.988;2024-03-08T02:07:01;17.80;;;7.93;;
14139;SDS011;7150;53.514;9.988;2024-03-08T02:09:27;14.97;;;8.10;;
14139;SDS011;7150;53.514;9.988;2024-03-08T02:11:52;12.47;;;7.57;;
14139;SDS011;7150;53.514;9.988;2024-03-08T02:14:19;14.93;;;8.60;;
14139;SDS011;7150;53.514;9.988;2024-03-08T02:16:45;14.60;;;8.30;;
14139;SDS011;7150;53.514;9.988;2024-03-08T02:19:10;14.10;;;8.33;;
14139;SDS011;7150;53.514;9.988;2024-03-08T02:21:36;12.90;;;8.07;;
14139;SDS011;7150;53.514;9.988;2024-03-08T02:24:03;13.33;;;7.63;;
14139;SDS011;7150;53.514;9.988;2024-03-08T02:26:29;13.53;;;7.53;;
14139;SDS011;7150;53.514;9.988;2024-03-08T02:28:54;15.83;;;8.57;;
14139;SDS011;7150;53.514;9.988;2024-03-08T02:31:20;13.87;;;8.03;;
14139;SDS011;7150;53.514;9.988;2024-03-08T02:33:46;12.03;;;7.50;;
14139;SDS011;7150;53.514;9.988;2024-03-08T02:36:12;16.90;;;8.97;;
14139;SDS011;7150;53.514;9.988;2024-03-08T02:38:38;13.67;;;9.23;;
14139;SDS011;7150;53.514;9.988;2024-03-08T02:41:05;15.27;;;8.77;;
14139;SDS011;7150;53.514;9.988;2024-03-08T02:43:31;15.47;;;9.37;;
14139;SDS011;7150;53.514;9.988;2024-03-08T02:45:58;14.53;;;8.50;;
14139;SDS011;7150;53.514;9.988;2024-03-08T02:48:24;14.47;;;8.73;;
14139;SDS011;7150;53.514;9.988;2024-03-08T02:50:50;14.40;;;8.47;;
14139;SDS011;7150;53.514;9.988;2024-03-08T02:53:16;14.00;;;8.67;;
14139;SDS011;7150;53.514;9.988;2024-03-08T02:55:43;15.13;;;8.97;;
14139;SDS011;7150;53.514;9.988;2024-03-08T02:58:09;14.37;;;8.27;;
14139;SDS011;7150;53.514;9.988;2024-03-08T03:00:35;14.90;;;8.50;;
14139;SDS011;7150;53.514;9.988;2024-03-08T03:03:02;19.23;;;8.77;;
14139;SDS011;7150;53.514;9.988;2024-03-08T03:05:28;14.93;;;9.17;;
14139;SDS011;7150;53.514;9.988;2024-03-08T03:07:57;14.03;;;8.83;;
14139;SDS011;7150;53.514;9.988;2024-03-08T03:10:23;13.50;;;9.17;;
14139;SDS011;7150;53.514;9.988;2024-03-08T03:12:49;15.00;;;8.70;;
14139;SDS011;7150;53.514;9.988;2024-03-08T03:15:15;12.73;;;8.13;;
14139;SDS011;7150;53.514;9.988;2024-03-08T03:17:45;13.80;;;8.97;;
14139;SDS011;7150;53.514;9.988;2024-03-08T03:20:16;17.40;;;9.63;;
14139;SDS011;7150;53.514;9.988;2024-03-08T03:22:51;15.10;;;8.73;;
14139;SDS011;7150;53.514;9.988;2024-03-08T03:25:20;18.63;;;9.60;;
14139;SDS011;7150;53.514;9.988;2024-03-08T03:27:58;17.67;;;9.53;;
14139;SDS011;7150;53.514;9.988;2024-03-08T03:30:24;13.00;;;8.27;;
14139;SDS011;7150;53.514;9.988;2024-03-08T03:32:51;14.97;;;8.73;;
14139;SDS011;7150;53.514;9.988;2024-03-08T03:35:17;13.83;;;8.90;;
14139;SDS011;7150;53.514;9.988;2024-03-08T03:37:43;18.53;;;8.97;;
14139;SDS011;7150;53.514;9.988;2024-03-08T03:40:26;16.83;;;9.00;;
14139;SDS011;7150;53.514;9.988;2024-03-08T03:42:53;16.60;;;8.63;;
14139;SDS011;7150;53.514;9.988;2024-03-08T03:45:18;18.13;;;9.80;;
14139;SDS011;7150;53.514;9.988;2024-03-08T03:47:45;15.57;;;9.23;;
14139;SDS011;7150;53.514;9.988;2024-03-08T03:50:10;15.63;;;9.03;;
14139;SDS011;7150;53.514;9.988;2024-03-08T03:52:36;15.87;;;8.93;;
14139;SDS011;7150;53.514;9.988;2024-03-08T03:55:02;16.63;;;9.50;;
14139;SDS011;7150;53.514;9.988;2024-03-08T03:57:29;19.60;;;10.47;;
14139;SDS011;7150;53.514;9.988;2024-03-08T03:59:55;19.60;;;9.87;;
14139;SDS011;7150;53.514;9.988;2024-03-08T04:02:22;19.63;;;9.10;;
14139;SDS011;7150;53.514;9.988;2024-03-08T04:04:47;17.00;;;10.03;;
14139;SDS011;7150;53.514;9.988;2024-03-08T04:07:13;17.87;;;9.80;;
14139;SDS011;7150;53.514;9.988;2024-03-08T04:09:38;18.37;;;10.03;;
14139;SDS011;7150;53.514;9.988;2024-03-08T04:12:04;16.03;;;9.10;;
14139;SDS011;7150;53.514;9.988;2024-03-08T04:14:30;15.93;;;9.17;;
14139;SDS011;7150;53.514;9.988;2024-03-08T04:16:55;13.03;;;8.60;;
14139;SDS011;7150;53.514;9.988;2024-03-08T04:19:21;14.73;;;8.70;;
14139;SDS011;7150;53.514;9.988;2024-03-08T04:21:47;14.93;;;8.77;;
14139;SDS011;7150;53.514;9.988;2024-03-08T04:24:12;16.83;;;9.53;;
14139;SDS011;7150;53.514;9.988;2024-03-08T04:26:38;14.60;;;9.10;;
14139;SDS011;7150;53.514;9.988;2024-03-08T04:29:03;14.40;;;8.43;;
14139;SDS011;7150;53.514;9.988;2024-03-08T04:31:29;17.43;;;9.53;;
14139;SDS011;7150;53.514;9.988;2024-03-08T04:33:56;17.03;;;9.87;;
14139;SDS011;7150;53.514;9.988;2024-03-08T04:36:21;14.87;;;8.53;;
14139;SDS011;7150;53.514;9.988;2024-03-08T04:38:48;15.50;;;8.90;;
14139;SDS011;7150;53.514;9.988;2024-03-08T04:41:14;16.07;;;9.33;;
14139;SDS011;7150;53.514;9.988;2024-03-08T04:43:39;16.20;;;9.27;;
14139;SDS011;7150;53.514;9.988;2024-03-08T04:46:05;16.77;;;10.33;;
14139;SDS011;7150;53.514;9.988;2024-03-08T04:48:30;17.97;;;9.23;;
14139;SDS011;7150;53.514;9.988;2024-03-08T04:50:56;17.57;;;8.47;;
14139;SDS011;7150;53.514;9.988;2024-03-08T04:53:22;17.80;;;10.00;;
14139;SDS011;7150;53.514;9.988;2024-03-08T04:55:48;17.47;;;9.70;;
14139;SDS011;7150;53.514;9.988;2024-03-08T04:58:14;19.50;;;9.80;;
14139;SDS011;7150;53.514;9.988;2024-03-08T05:00:40;15.63;;;9.30;;
14139;SDS011;7150;53.514;9.988;2024-03-08T05:03:05;16.63;;;8.77;;
14139;SDS011;7150;53.514;9.988;2024-03-08T05:05:31;15.67;;;8.67;;
14139;SDS011;7150;53.514;9.988;2024-03-08T05:07:58;14.17;;;8.47;;
14139;SDS011;7150;53.514;9.988;2024-03-08T05:10:23;17.10;;;8.80;;
14139;SDS011;7150;53.514;9.988;2024-03-08T05:12:49;15.80;;;9.37;;
14139;SDS011;7150;53.514;9.988;2024-03-08T05:15:14;18.50;;;9.83;;
14139;SDS011;7150;53.514;9.988;2024-03-08T05:17:40;15.10;;;8.47;;
14139;SDS011;7150;53.514;9.988;2024-03-08T05:20:07;17.57;;;9.70;;
14139;SDS011;7150;53.514;9.988;2024-03-08T05:22:33;17.43;;;9.87;;
14139;SDS011;7150;53.514;9.988;2024-03-08T05:24:59;16.87;;;9.90;;
14139;SDS011;7150;53.514;9.988;2024-03-08T05:27:24;17.10;;;10.20;;
14139;SDS011;7150;53.514;9.988;2024-03-08T05:29:50;18.83;;;9.60;;
14139;SDS011;7150;53.514;9.988;2024-03-08T05:32:15;13.93;;;9.13;;
14139;SDS011;7150;53.514;9.988;2024-03-08T05:34:41;17.83;;;9.70;;
14139;SDS011;7150;53.514;9.988;2024-03-08T05:37:07;14.00;;;9.00;;
14139;SDS011;7150;53.514;9.988;2024-03-08T05:39:33;14.40;;;8.30;;
14139;SDS011;7150;53.514;9.988;2024-03-08T05:41:58;16.87;;;9.63;;
14139;SDS011;7150;53.514;9.988;2024-03-08T05:44:24;18.33;;;9.37;;
14139;SDS011;7150;53.514;9.988;2024-03-08T05:46:53;18.37;;;9.40;;
14139;SDS011;7150;53.514;9.988;2024-03-08T05:49:19;18.43;;;9.47;;
14139;SDS011;7150;53.514;9.988;2024-03-08T05:51:46;16.00;;;9.77;;
14139;SDS011;7150;53.514;9.988;2024-03-08T05:54:12;17.70;;;9.03;;
14139;SDS011;7150;53.514;9.988;2024-03-08T05:56:38;16.97;;;9.67;;
14139;SDS011;7150;53.514;9.988;2024-03-08T05:59:08;16.63;;;10.20;;
14139;SDS011;7150;53.514;9.988;2024-03-08T06:01:36;14.07;;;8.30;;
14139;SDS011;7150;53.514;9.988;2024-03-08T06:04:02;18.07;;;8.97;;
14139;SDS011;7150;53.514;9.988;2024-03-08T06:06:28;17.70;;;10.20;;
14139;SDS011;7150;53.514;9.988;2024-03-08T06:08:54;16.47;;;9.70;;
14139;SDS011;7150;53.514;9.988;2024-03-08T06:11:24;15.17;;;8.93;;
14139;SDS011;7150;53.514;9.988;2024-03-08T06:13:51;18.67;;;10.00;;
14139;SDS011;7150;53.514;9.988;2024-03-08T06:16:24;18.97;;;10.20;;
14139;SDS011;7150;53.514;9.988;2024-03-08T06:18:53;19.33;;;10.00;;
14139;SDS011;7150;53.514;9.988;2024-03-08T06:21:22;15.40;;;9.43;;
14139;SDS011;7150;53.514;9.988;2024-03-08T06:23:50;16.20;;;9.37;;
14139;SDS011;7150;53.514;9.988;2024-03-08T06:26:19;19.40;;;9.97;;
14139;SDS011;7150;53.514;9.988;2024-03-08T06:28:45;16.80;;;9.47;;
14139;SDS011;7150;53.514;9.988;2024-03-08T06:31:11;18.03;;;10.50;;
14139;SDS011;7150;53.514;9.988;2024-03-08T06:33:36;17.90;;;9.33;;
14139;SDS011;7150;53.514;9.988;2024-03-08T06:36:02;15.17;;;8.83;;
14139;SDS011;7150;53.514;9.988;2024-03-08T06:38:28;17.40;;;10.03;;
14139;SDS011;7150;53.514;9.988;2024-03-08T06:40:55;17.70;;;9.03;;
14139;SDS011;7150;53.514;9.988;2024-03-08T06:43:21;19.43;;;9.87;;
14139;SDS011;7150;53.514;9.988;2024-03-08T06:45:47;16.47;;;9.47;;
14139;SDS011;7150;53.514;9.988;2024-03-08T06:48:18;20.77;;;10.17;;
14139;SDS011;7150;53.514;9.988;2024-03-08T06:50:44;16.60;;;9.40;;
14139;SDS011;7150;53.514;9.988;2024-03-08T06:53:11;20.43;;;10.43;;
14139;SDS011;7150;53.514;9.988;2024-03-08T06:55:37;17.17;;;10.07;;
14139;SDS011;7150;53.514;9.988;2024-03-08T06:58:03;19.37;;;10.60;;
14139;SDS011;7150;53.514;9.988;2024-03-08T07:00:29;16.70;;;10.13;;
14139;SDS011;7150;53.514;9.988;2024-03-08T07:02:55;18.40;;;10.77;;
14139;SDS011;7150;53.514;9.988;2024-03-08T07:05:27;18.60;;;10.63;;
14139;SDS011;7150;53.514;9.988;2024-03-08T07:07:57;18.97;;;10.53;;
14139;SDS011;7150;53.514;9.988;2024-03-08T07:10:23;19.57;;;10.60;;
14139;SDS011;7150;53.514;9.988;2024-03-08T07:12:49;19.90;;;11.77;;
14139;SDS011;7150;53.514;9.988;2024-03-08T07:15:15;18.70;;;10.63;;
14139;SDS011;7150;53.514;9.988;2024-03-08T07:17:41;16.03;;;10.00;;
14139;SDS011;7150;53.514;9.988;2024-03-08T07:20:09;18.17;;;10.27;;
14139;SDS011;7150;53.514;9.988;2024-03-08T07:22:37;18.23;;;10.40;;
14139;SDS011;7150;53.514;9.988;2024-03-08T07:25:05;18.27;;;10.30;;
14139;SDS011;7150;53.514;9.988;2024-03-08T07:27:50;16.10;;;9.90;;
14139;SDS011;7150;53.514;9.988;2024-03-08T07:30:18;20.33;;;10.47;;
14139;SDS011;7150;53.514;9.988;2024-03-08T07:33:05;18.17;;;10.17;;
14139;SDS011;7150;53.514;9.988;2024-03-08T07:35:32;18.27;;;10.53;;
14139;SDS011;7150;53.514;9.988;2024-03-08T07:38:01;16.37;;;9.70;;
14139;SDS011;7150;53.514;9.988;2024-03-08T07:40:29;16.67;;;9.80;;
14139;SDS011;7150;53.514;9.988;2024-03-08T07:42:55;18.13;;;10.23;;
14139;SDS011;7150;53.514;9.988;2024-03-08T07:45:20;20.87;;;10.57;;
14139;SDS011;7150;53.514;9.988;2024-03-08T07:47:47;19.67;;;10.73;;
14139;SDS011;7150;53.514;9.988;2024-03-08T07:50:12;21.30;;;10.97;;
14139;SDS011;7150;53.514;9.988;2024-03-08T07:52:41;19.73;;;10.67;;
14139;SDS011;7150;53.514;9.988;2024-03-08T07:55:07;20.10;;;11.17;;
14139;SDS011;7150;53.514;9.988;2024-03-08T07:57:35;18.63;;;11.13;;
14139;SDS011;7150;53.514;9.988;2024-03-08T08:00:03;18.60;;;10.67;;
14139;SDS011;7150;53.514;9.988;2024-03-08T08:02:32;16.07;;;10.20;;
14139;SDS011;7150;53.514;9.988;2024-03-08T08:04:57;19.03;;;10.57;;
14139;SDS011;7150;53.514;9.988;2024-03-08T08:07:24;18.40;;;11.07;;
14139;SDS011;7150;53.514;9.988;2024-03-08T08:09:49;20.07;;;11.43;;
14139;SDS011;7150;53.514;9.988;2024-03-08T08:12:15;23.77;;;11.23;;
14139;SDS011;7150;53.514;9.988;2024-03-08T08:14:41;17.70;;;11.17;;
14139;SDS011;7150;53.514;9.988;2024-03-08T08:17:07;20.53;;;11.83;;
14139;SDS011;7150;53.514;9.988;2024-03-08T08:19:33;22.80;;;12.23;;
14139;SDS011;7150;53.514;9.988;2024-03-08T08:22:00;19.13;;;11.10;;
14139;SDS011;7150;53.514;9.988;2024-03-08T08:24:27;18.17;;;10.97;;
14139;SDS011;7150;53.514;9.988;2024-03-08T08:26:53;18.63;;;10.53;;
14139;SDS011;7150;53.514;9.988;2024-03-08T08:29:20;19.57;;;11.43;;
14139;SDS011;7150;53.514;9.988;2024-03-08T08:31:47;18.93;;;11.27;;
14139;SDS011;7150;53.514;9.988;2024-03-08T08:34:12;20.17;;;11.57;;
14139;SDS011;7150;53.514;9.988;2024-03-08T08:36:38;21.77;;;11.77;;
14139;SDS011;7150;53.514;9.988;2024-03-08T08:39:04;17.13;;;10.87;;
14139;SDS011;7150;53.514;9.988;2024-03-08T08:41:37;19.00;;;11.67;;
14139;SDS011;7150;53.514;9.988;2024-03-08T08:44:02;18.33;;;11.17;;
14139;SDS011;7150;53.514;9.988;2024-03-08T08:46:28;19.10;;;11.80;;
14139;SDS011;7150;53.514;9.988;2024-03-08T08:48:54;19.47;;;11.43;;
14139;SDS011;7150;53.514;9.988;2024-03-08T08:51:19;21.03;;;12.33;;
14139;SDS011;7150;53.514;9.988;2024-03-08T08:53:45;19.73;;;12.43;;
14139;SDS011;7150;53.514;9.988;2024-03-08T08:56:12;21.37;;;11.67;;
14139;SDS011;7150;53.514;9.988;2024-03-08T08:58:47;20.53;;;11.63;;
14139;SDS011;7150;53.514;9.988;2024-03-08T09:01:14;18.10;;;10.80;;
14139;SDS011;7150;53.514;9.988;2024-03-08T09:03:39;21.33;;;11.47;;
14139;SDS011;7150;53.514;9.988;2024-03-08T09:06:08;23.00;;;11.70;;
14139;SDS011;7150;53.514;9.988;2024-03-08T09:08:35;20.73;;;11.53;;
14139;SDS011;7150;53.514;9.988;2024-03-08T09:11:01;19.97;;;11.23;;
14139;SDS011;7150;53.514;9.988;2024-03-08T09:13:26;20.33;;;11.17;;
14139;SDS011;7150;53.514;9.988;2024-03-08T09:15:52;16.80;;;10.67;;
14139;SDS011;7150;53.514;9.988;2024-03-08T09:18:17;18.77;;;10.93;;
14139;SDS011;7150;53.514;9.988;2024-03-08T09:20:44;17.37;;;10.70;;
14139;SDS011;7150;53.514;9.988;2024-03-08T09:23:09;19.23;;;10.90;;
14139;SDS011;7150;53.514;9.988;2024-03-08T09:25:35;18.93;;;10.37;;
14139;SDS011;7150;53.514;9.988;2024-03-08T09:28:00;16.37;;;10.43;;
14139;SDS011;7150;53.514;9.988;2024-03-08T09:30:26;17.70;;;10.80;;
14139;SDS011;7150;53.514;9.988;2024-03-08T09:32:51;18.20;;;11.17;;
14139;SDS011;7150;53.514;9.988;2024-03-08T09:35:17;19.20;;;11.07;;
14139;SDS011;7150;53.514;9.988;2024-03-08T09:37:42;20.43;;;10.90;;
14139;SDS011;7150;53.514;9.988;2024-03-08T09:40:08;17.20;;;10.07;;
14139;SDS011;7150;53.514;9.988;2024-03-08T09:42:34;15.00;;;9.57;;
14139;SDS011;7150;53.514;9.988;2024-03-08T09:45:03;15.63;;;9.30;;
14139;SDS011;7150;53.514;9.988;2024-03-08T09:47:35;20.17;;;10.70;;
14139;SDS011;7150;53.514;9.988;2024-03-08T09:50:04;19.27;;;10.47;;
14139;SDS011;7150;53.514;9.988;2024-03-08T09:52:34;16.97;;;9.80;;
14139;SDS011;7150;53.514;9.988;2024-03-08T09:55:00;17.33;;;10.67;;
14139;SDS011;7150;53.514;9.988;2024-03-08T09:57:26;16.93;;;10.47;;
14139;SDS011;7150;53.514;9.988;2024-03-08T09:59:52;16.77;;;10.80;;
14139;SDS011;7150;53.514;9.988;2024-03-08T10:02:18;19.60;;;10.90;;
14139;SDS011;7150;53.514;9.988;2024-03-08T10:04:43;18.03;;;11.20;;
14139;SDS011;7150;53.514;9.988;2024-03-08T10:07:12;15.50;;;10.07;;
14139;SDS011;7150;53.514;9.988;2024-03-08T10:09:38;17.20;;;9.43;;
14139;SDS011;7150;53.514;9.988;2024-03-08T10:12:04;16.53;;;9.63;;
14139;SDS011;7150;53.514;9.988;2024-03-08T10:14:30;16.13;;;10.10;;
14139;SDS011;7150;53.514;9.988;2024-03-08T10:16:57;16.87;;;10.73;;
14139;SDS011;7150;53.514;9.988;2024-03-08T10:19:25;16.93;;;10.93;;
14139;SDS011;7150;53.514;9.988;2024-03-08T10:21:51;17.37;;;10.70;;
14139;SDS011;7150;53.514;9.988;2024-03-08T10:24:22;17.70;;;10.57;;
14139;SDS011;7150;53.514;9.988;2024-03-08T10:26:48;16.07;;;9.83;;
14139;SDS011;7150;53.514;9.988;2024-03-08T10:29:18;14.93;;;9.60;;
14139;SDS011;7150;53.514;9.988;2024-03-08T10:31:43;16.57;;;9.60;;
14139;SDS011;7150;53.514;9.988;2024-03-08T10:34:10;13.47;;;9.57;;
14139;SDS011;7150;53.514;9.988;2024-03-08T10:36:35;17.10;;;10.27;;
14139;SDS011;7150;53.514;9.988;2024-03-08T10:39:02;17.77;;;10.17;;
14139;SDS011;7150;53.514;9.988;2024-03-08T10:41:32;15.13;;;9.30;;
14139;SDS011;7150;53.514;9.988;2024-03-08T10:46:48;15.13;;;9.90;;
14139;SDS011;7150;53.514;9.988;2024-03-08T10:52:30;16.10;;;9.07;;
14139;SDS011;7150;53.514;9.988;2024-03-08T10:54:56;15.17;;;9.50;;
14139;SDS011;7150;53.514;9.988;2024-03-08T10:57:23;16.23;;;10.03;;
14139;SDS011;7150;53.514;9.988;2024-03-08T10:59:49;16.63;;;9.53;;
14139;SDS011;7150;53.514;9.988;2024-03-08T11:02:17;14.30;;;9.10;;
14139;SDS011;7150;53.514;9.988;2024-03-08T11:04:47;13.90;;;8.77;;
14139;SDS011;7150;53.514;9.988;2024-03-08T11:07:14;12.73;;;8.27;;
14139;SDS011;7150;53.514;9.988;2024-03-08T11:09:43;15.83;;;9.97;;
14139;SDS011;7150;53.514;9.988;2024-03-08T11:14:54;15.20;;;9.17;;
14139;SDS011;7150;53.514;9.988;2024-03-08T11:19:54;13.53;;;8.37;;
14139;SDS011;7150;53.514;9.988;2024-03-08T11:22:22;15.83;;;9.40;;
14139;SDS011;7150;53.514;9.988;2024-03-08T11:24:51;11.97;;;9.20;;
14139;SDS011;7150;53.514;9.988;2024-03-08T11:27:17;14.77;;;8.40;;
14139;SDS011;7150;53.514;9.988;2024-03-08T11:29:45;12.93;;;8.23;;
14139;SDS011;7150;53.514;9.988;2024-03-08T11:32:26;12.77;;;8.73;;
14139;SDS011;7150;53.514;9.988;2024-03-08T11:34:53;12.73;;;8.27;;
14139;SDS011;7150;53.514;9.988;2024-03-08T11:37:19;13.93;;;7.90;;
14139;SDS011;7150;53.514;9.988;2024-03-08T11:39:46;13.63;;;8.93;;
14139;SDS011;7150;53.514;9.988;2024-03-08T11:42:17;14.77;;;8.67;;
14139;SDS011;7150;53.514;9.988;2024-03-08T11:44:44;14.10;;;8.57;;
14139;SDS011;7150;53.514;9.988;2024-03-08T11:47:10;13.10;;;8.20;;
14139;SDS011;7150;53.514;9.988;2024-03-08T11:49:37;12.27;;;8.00;;
14139;SDS011;7150;53.514;9.988;2024-03-08T11:52:04;12.43;;;8.10;;
14139;SDS011;7150;53.514;9.988;2024-03-08T11:54:30;12.07;;;7.93;;
14139;SDS011;7150;53.514;9.988;2024-03-08T11:56:58;12.70;;;7.83;;
14139;SDS011;7150;53.514;9.988;2024-03-08T11:59:27;14.10;;;8.43;;
14139;SDS011;7150;53.514;9.988;2024-03-08T12:04:30;15.33;;;8.83;;
14139;SDS011;7150;53.514;9.988;2024-03-08T12:06:56;15.13;;;8.17;;
14139;SDS011;7150;53.514;9.988;2024-03-08T12:09:26;15.57;;;9.23;;
14139;SDS011;7150;53.514;9.988;2024-03-08T12:11:51;14.30;;;8.73;;
14139;SDS011;7150;53.514;9.988;2024-03-08T12:14:17;13.30;;;8.40;;
14139;SDS011;7150;53.514;9.988;2024-03-08T12:16:43;13.80;;;8.90;;
14139;SDS011;7150;53.514;9.988;2024-03-08T12:19:09;13.33;;;8.10;;
14139;SDS011;7150;53.514;9.988;2024-03-08T12:21:35;12.70;;;7.60;;
14139;SDS011;7150;53.514;9.988;2024-03-08T12:24:02;13.50;;;8.17;;
14139;SDS011;7150;53.514;9.988;2024-03-08T12:26:29;14.97;;;8.57;;
14139;SDS011;7150;53.514;9.988;2024-03-08T12:29:00;12.13;;;7.57;;
14139;SDS011;7150;53.514;9.988;2024-03-08T12:31:41;13.93;;;8.50;;
14139;SDS011;7150;53.514;9.988;2024-03-08T12:34:07;14.20;;;9.07;;
14139;SDS011;7150;53.514;9.988;2024-03-08T12:36:34;12.63;;;7.83;;
14139;SDS011;7150;53.514;9.988;2024-03-08T12:39:03;12.90;;;7.73;;
14139;SDS011;7150;53.514;9.988;2024-03-08T12:41:30;13.43;;;8.37;;
14139;SDS011;7150;53.514;9.988;2024-03-08T12:43:57;12.33;;;7.63;;
14139;SDS011;7150;53.514;9.988;2024-03-08T12:46:23;11.97;;;7.60;;
14139;SDS011;7150;53.514;9.988;2024-03-08T12:48:51;12.90;;;7.30;;
14139;SDS011;7150;53.514;9.988;2024-03-08T12:51:18;12.10;;;7.60;;
14139;SDS011;7150;53.514;9.988;2024-03-08T12:53:45;11.53;;;7.37;;
14139;SDS011;7150;53.514;9.988;2024-03-08T12:56:11;12.47;;;8.23;;
14139;SDS011;7150;53.514;9.988;2024-03-08T12:58:45;13.00;;;8.00;;
14139;SDS011;7150;53.514;9.988;2024-03-08T13:01:10;9.90;;;7.00;;
14139;SDS011;7150;53.514;9.988;2024-03-08T13:03:37;11.90;;;7.33;;
14139;SDS011;7150;53.514;9.988;2024-03-08T13:06:03;11.80;;;7.50;;
14139;SDS011;7150;53.514;9.988;2024-03-08T13:08:36;12.10;;;8.17;;
14139;SDS011;7150;53.514;9.988;2024-03-08T13:11:05;13.23;;;7.97;;
14139;SDS011;7150;53.514;9.988;2024-03-08T13:13:32;12.03;;;7.07;;
14139;SDS011;7150;53.514;9.988;2024-03-08T13:16:00;12.03;;;7.97;;
14139;SDS011;7150;53.514;9.988;2024-03-08T13:18:26;11.53;;;7.93;;
14139;SDS011;7150;53.514;9.988;2024-03-08T13:20:52;11.03;;;7.20;;
14139;SDS011;7150;53.514;9.988;2024-03-08T13:23:19;13.07;;;7.50;;
14139;SDS011;7150;53.514;9.988;2024-03-08T13:25:45;12.53;;;7.30;;
14139;SDS011;7150;53.514;9.988;2024-03-08T13:28:12;12.23;;;7.97;;
14139;SDS011;7150;53.514;9.988;2024-03-08T13:30:38;11.23;;;7.33;;
14139;SDS011;7150;53.514;9.988;2024-03-08T13:33:04;12.63;;;7.47;;
14139;SDS011;7150;53.514;9.988;2024-03-08T13:35:30;11.57;;;6.60;;
14139;SDS011;7150;53.514;9.988;2024-03-08T13:37:56;11.90;;;7.43;;
14139;SDS011;7150;53.514;9.988;2024-03-08T13:40:21;11.77;;;7.80;;
14139;SDS011;7150;53.514;9.988;2024-03-08T13:42:47;11.23;;;7.33;;
14139;SDS011;7150;53.514;9.988;2024-03-08T13:45:14;11.17;;;6.83;;
14139;SDS011;7150;53.514;9.988;2024-03-08T13:47:42;10.43;;;6.73;;
14139;SDS011;7150;53.514;9.988;2024-03-08T13:50:09;13.23;;;7.17;;
14139;SDS011;7150;53.514;9.988;2024-03-08T13:52:39;11.57;;;7.10;;
14139;SDS011;7150;53.514;9.988;2024-03-08T13:55:05;12.00;;;7.47;;
14139;SDS011;7150;53.514;9.988;2024-03-08T13:57:31;10.73;;;6.40;;
14139;SDS011;7150;53.514;9.988;2024-03-08T13:59:57;10.03;;;6.97;;
14139;SDS011;7150;53.514;9.988;2024-03-08T14:02:23;10.30;;;6.67;;
14139;SDS011;7150;53.514;9.988;2024-03-08T14:04:53;10.20;;;6.40;;
14139;SDS011;7150;53.514;9.988;2024-03-08T14:07:19;11.83;;;7.23;;
14139;SDS011;7150;53.514;9.988;2024-03-08T14:09:45;10.20;;;7.50;;
14139;SDS011;7150;53.514;9.988;2024-03-08T14:12:10;11.33;;;6.23;;
14139;SDS011;7150;53.514;9.988;2024-03-08T14:14:36;11.63;;;7.00;;
14139;SDS011;7150;53.514;9.988;2024-03-08T14:17:02;11.10;;;7.00;;
14139;SDS011;7150;53.514;9.988;2024-03-08T14:19:28;12.73;;;7.27;;
14139;SDS011;7150;53.514;9.988;2024-03-08T14:21:55;10.00;;;6.80;;
14139;SDS011;7150;53.514;9.988;2024-03-08T14:24:21;9.83;;;6.13;;
14139;SDS011;7150;53.514;9.988;2024-03-08T14:26:47;11.67;;;7.47;;
14139;SDS011;7150;53.514;9.988;2024-03-08T14:29:14;10.23;;;7.07;;
14139;SDS011;7150;53.514;9.988;2024-03-08T14:31:39;11.43;;;6.93;;
14139;SDS011;7150;53.514;9.988;2024-03-08T14:34:06;11.53;;;6.93;;
14139;SDS011;7150;53.514;9.988;2024-03-08T14:36:32;9.97;;;6.80;;
14139;SDS011;7150;53.514;9.988;2024-03-08T14:38:57;10.60;;;6.97;;
14139;SDS011;7150;53.514;9.988;2024-03-08T14:41:23;12.67;;;7.03;;
14139;SDS011;7150;53.514;9.988;2024-03-08T14:43:49;10.43;;;7.10;;
14139;SDS011;7150;53.514;9.988;2024-03-08T14:46:14;10.03;;;6.97;;
14139;SDS011;7150;53.514;9.988;2024-03-08T14:48:49;9.93;;;6.03;;
14139;SDS011;7150;53.514;9.988;2024-03-08T14:51:16;10.27;;;6.80;;
14139;SDS011;7150;53.514;9.988;2024-03-08T14:53:44;11.80;;;6.57;;
14139;SDS011;7150;53.514;9.988;2024-03-08T14:56:13;9.03;;;6.10;;